Time;durP1;ratioP1;P1;durP2;ratioP2;P2;SDS_P1;SDS_P2;PMS_P1;PMS_P2;Temp;Humidity;BMP_temperature;BMP_pressure;BME280_temperature;BME280_humidity;BME280_pressure;Samples;Min_cycle;Max_cycle;Signal;HPM_P1;HPM_P2
2021/04/30 00:01:09;;;;;;;6.43;4.47;;;;;;;7.76;76.79;96000.84;4895188;29;20451;-72
2021/04/30 00:03:36;;;;;;;5.38;4.22;;;;;;;7.77;77.02;96001.66;4921825;29;20785;-73
2021/04/30 00:06:04;;;;;;;7.28;4.60;;;;;;;7.74;76.38;96012.22;4916161;29;20196;-73
2021/04/30 00:08:31;;;;;;;9.10;4.60;;;;;;;7.68;76.31;95999.63;4916523;29;20678;-72
2021/04/30 00:10:59;;;;;;;4.63;4.15;;;;;;;7.68;76.93;96005.66;4916800;29;20803;-75
2021/04/30 00:13:26;;;;;;;7.13;4.65;;;;;;;7.69;76.58;96003.88;4911811;29;20204;-73
2021/04/30 00:15:53;;;;;;;6.47;4.70;;;;;;;7.65;76.66;96002.41;4922741;29;20640;-72
2021/04/30 00:18:20;;;;;;;6.23;4.50;;;;;;;7.63;76.62;96006.84;4912984;29;20448;-70
2021/04/30 00:20:52;;;;;;;9.13;4.00;;;;;;;7.47;76.94;96008.69;4923497;29;20440;-70
2021/04/30 00:23:25;;;;;;;6.80;5.10;;;;;;;7.43;77.10;96015.78;4918859;29;20336;-70
2021/04/30 00:25:53;;;;;;;7.57;5.25;;;;;;;7.43;76.81;96012.38;4913819;29;20211;-70
2021/04/30 00:28:21;;;;;;;6.85;5.25;;;;;;;7.30;76.75;96011.44;4919587;29;20188;-69
2021/04/30 00:30:49;;;;;;;7.38;5.35;;;;;;;7.29;76.72;96014.94;4916154;29;20192;-70
2021/04/30 00:33:16;;;;;;;8.88;5.05;;;;;;;7.22;77.68;96011.06;4913763;29;20644;-71
2021/04/30 00:35:44;;;;;;;7.32;4.95;;;;;;;7.33;78.05;96016.41;4913772;29;20616;-71
2021/04/30 00:38:11;;;;;;;7.47;4.38;;;;;;;7.45;78.28;96016.53;4931916;28;20207;-70
2021/04/30 00:40:39;;;;;;;8.65;5.15;;;;;;;7.52;77.80;96010.06;4910076;29;20777;-69
2021/04/30 00:43:06;;;;;;;8.50;4.95;;;;;;;7.60;77.27;96017.38;4915854;29;20183;-72
2021/04/30 00:45:33;;;;;;;6.30;4.65;;;;;;;7.59;77.61;96016.53;4920690;29;20223;-69
2021/04/30 00:48:00;;;;;;;8.60;5.15;;;;;;;7.57;78.00;96015.81;4921720;29;20189;-70
2021/04/30 00:50:29;;;;;;;6.10;3.88;;;;;;;7.34;78.61;96000.81;4919115;29;20251;-71
2021/04/30 00:52:59;;;;;;;11.48;4.72;;;;;;;7.02;78.94;96016.53;4921790;29;20193;-71
2021/04/30 00:55:26;;;;;;;6.80;4.43;;;;;;;6.92;79.48;96021.41;4922843;29;20604;-70
2021/04/30 00:57:56;;;;;;;10.88;4.30;;;;;;;6.94;80.25;96013.56;4915856;29;20243;-70
2021/04/30 01:00:25;;;;;;;5.90;4.95;;;;;;;7.06;79.57;96023.22;4925657;29;20223;-70
2021/04/30 01:02:52;;;;;;;5.55;4.25;;;;;;;7.03;79.78;96031.13;4917045;29;20235;-71
2021/04/30 01:05:20;;;;;;;7.18;4.80;;;;;;;6.96;80.23;96001.34;4947336;28;20210;-71
2021/04/30 01:07:47;;;;;;;9.27;5.03;;;;;;;7.15;80.30;96020.09;4952281;28;20195;-71
2021/04/30 01:10:15;;;;;;;8.05;6.10;;;;;;;7.26;79.12;96020.28;4938861;28;20314;-72
2021/04/30 01:12:43;;;;;;;7.60;5.15;;;;;;;7.23;79.07;96025.66;4948996;28;20198;-70
2021/04/30 01:15:12;;;;;;;9.52;5.18;;;;;;;7.28;78.82;96034.00;4939915;28;20572;-71
2021/04/30 01:17:42;;;;;;;8.80;5.90;;;;;;;7.26;78.85;96030.63;4938666;28;20838;-70
2021/04/30 01:20:11;;;;;;;7.03;4.65;;;;;;;7.27;78.87;96021.94;4942425;28;20673;-73
2021/04/30 01:22:40;;;;;;;9.75;4.55;;;;;;;7.43;79.49;96018.38;4941863;28;20202;-72
2021/04/30 01:25:10;;;;;;;8.27;5.75;;;;;;;7.57;78.74;96025.34;4929466;28;20729;-71
2021/04/30 01:27:38;;;;;;;8.85;5.80;;;;;;;7.59;78.08;96029.50;4941686;28;20658;-71
2021/04/30 01:30:07;;;;;;;8.38;5.22;;;;;;;7.55;78.44;96027.19;4943627;28;20753;-70
2021/04/30 01:32:34;;;;;;;17.52;6.15;;;;;;;7.46;78.74;96022.53;4942823;28;20737;-71
2021/04/30 01:35:01;;;;;;;8.48;5.30;;;;;;;7.54;78.90;96022.94;4938881;28;20526;-72
2021/04/30 01:37:30;;;;;;;6.78;5.20;;;;;;;7.52;79.13;96022.19;4940043;28;20222;-71
2021/04/30 01:39:58;;;;;;;7.13;4.85;;;;;;;7.55;79.45;96007.31;4937019;28;20872;-71
2021/04/30 01:42:25;;;;;;;8.68;5.60;;;;;;;7.70;79.23;96021.09;4925356;28;20577;-71
2021/04/30 01:44:52;;;;;;;8.50;5.05;;;;;;;7.70;79.39;96021.09;4947379;28;20226;-71
2021/04/30 01:47:19;;;;;;;6.85;4.60;;;;;;;7.66;79.08;96022.22;4947282;28;20292;-71
2021/04/30 01:49:46;;;;;;;6.07;4.68;;;;;;;7.49;78.92;96014.59;4944707;28;20242;-72
2021/04/30 01:52:13;;;;;;;12.57;4.82;;;;;;;7.26;80.11;96020.28;4942943;28;20190;-71
2021/04/30 01:54:48;;;;;;;6.38;4.63;;;;;;;7.05;80.29;96034.47;4936215;28;20254;-71
2021/04/30 01:57:16;;;;;;;13.43;4.88;;;;;;;6.93;81.30;96037.75;4943697;28;20587;-71
2021/04/30 01:59:43;;;;;;;6.45;5.28;;;;;;;6.96;81.55;96040.16;4943657;28;20233;-70
2021/04/30 02:02:10;;;;;;;7.90;5.50;;;;;;;7.00;81.20;96029.56;4942881;28;20322;-70
2021/04/30 02:04:37;;;;;;;7.45;5.47;;;;;;;7.13;81.47;96034.88;4944973;28;20870;-73
2021/04/30 02:07:04;;;;;;;11.38;5.35;;;;;;;7.22;81.38;96034.34;4948594;28;20191;-71
2021/04/30 02:09:31;;;;;;;9.43;5.88;;;;;;;7.32;81.64;96035.47;4949572;28;20285;-70
2021/04/30 02:11:59;;;;;;;12.85;5.28;;;;;;;7.44;81.12;96034.75;4951054;28;20285;-70
2021/04/30 02:14:28;;;;;;;8.32;5.55;;;;;;;7.10;81.39;96030.72;4951948;28;20231;-69
2021/04/30 02:16:55;;;;;;;8.32;5.25;;;;;;;7.01;82.56;96040.75;4926040;28;20265;-70
2021/04/30 02:19:23;;;;;;;10.85;5.70;;;;;;;7.12;81.99;96048.72;4941590;28;20289;-71
2021/04/30 02:21:49;;;;;;;7.82;5.88;;;;;;;7.11;82.50;96031.53;4947419;28;20187;-69
2021/04/30 02:24:16;;;;;;;6.97;5.40;;;;;;;7.34;82.26;96044.81;4941556;28;20863;-72
2021/04/30 02:26:43;;;;;;;11.57;5.93;;;;;;;7.43;81.96;96039.09;4921198;28;20203;-69
2021/04/30 02:29:10;;;;;;;8.85;6.10;;;;;;;7.38;81.59;96025.59;4948071;28;20780;-72
2021/04/30 02:31:38;;;;;;;9.48;6.38;;;;;;;7.38;81.70;96019.59;4936467;28;20191;-71
2021/04/30 02:34:05;;;;;;;8.95;5.35;;;;;;;7.48;81.58;96007.75;4945494;28;20242;-71
2021/04/30 02:36:32;;;;;;;9.93;6.05;;;;;;;7.50;81.80;96005.94;4952603;28;20568;-71
2021/04/30 02:38:59;;;;;;;6.30;5.15;;;;;;;7.46;81.85;96004.44;4942015;28;20601;-71
2021/04/30 02:41:25;;;;;;;6.65;5.00;;;;;;;7.42;81.93;96010.72;4942123;28;20183;-72
2021/04/30 02:43:52;;;;;;;8.40;5.20;;;;;;;7.48;81.73;96008.59;4938254;28;20738;-72
2021/04/30 02:46:19;;;;;;;9.20;5.88;;;;;;;7.51;81.47;96007.59;4951910;28;20201;-71
2021/04/30 02:48:48;;;;;;;8.68;6.10;;;;;;;7.52;81.55;96007.47;4943273;28;20231;-72
2021/04/30 02:51:15;;;;;;;7.57;5.50;;;;;;;7.54;81.54;96009.97;4944287;28;20646;-71
2021/04/30 02:53:42;;;;;;;9.65;6.65;;;;;;;7.50;81.11;96008.50;4947783;28;21055;-71
2021/04/30 02:56:10;;;;;;;9.15;6.38;;;;;;;7.56;81.37;96013.31;4942215;28;20187;-70
2021/04/30 02:58:37;;;;;;;11.18;6.10;;;;;;;7.55;82.06;96014.22;4938216;28;20219;-70
2021/04/30 03:01:03;;;;;;;8.18;5.85;;;;;;;7.62;82.00;96031.06;4950923;28;20747;-70
2021/04/30 03:03:30;;;;;;;11.55;6.10;;;;;;;7.57;81.32;96046.06;4939906;28;20230;-70
2021/04/30 03:05:58;;;;;;;9.18;6.15;;;;;;;7.60;81.11;96040.69;4943010;28;20194;-70
2021/04/30 03:08:25;;;;;;;9.35;6.25;;;;;;;7.51;80.87;96041.25;4942283;28;20565;-70
2021/04/30 03:10:52;;;;;;;9.07;6.07;;;;;;;7.27;82.06;96037.47;4931792;28;20227;-70
2021/04/30 03:13:19;;;;;;;7.90;5.50;;;;;;;7.18;82.41;96019.91;4923063;28;20202;-70
2021/04/30 03:15:46;;;;;;;14.48;6.20;;;;;;;7.02;82.60;96006.19;4941095;28;20465;-70
2021/04/30 03:18:13;;;;;;;8.30;6.63;;;;;;;6.84;84.29;96007.25;4923362;28;20547;-70
2021/04/30 03:20:40;;;;;;;13.68;6.18;;;;;;;6.83;84.69;96011.59;4949845;28;20926;-70
2021/04/30 03:23:08;;;;;;;10.25;6.25;;;;;;;6.95;84.90;96013.47;4942393;28;20507;-71
2021/04/30 03:25:36;;;;;;;9.98;6.65;;;;;;;7.11;84.52;96014.25;4932355;28;20245;-71
2021/04/30 03:28:03;;;;;;;10.27;6.68;;;;;;;7.20;84.16;96015.50;4945172;28;20862;-75
2021/04/30 03:30:30;;;;;;;8.45;5.57;;;;;;;7.34;83.96;96023.25;4943329;28;20854;-70
2021/04/30 03:32:57;;;;;;;8.77;6.18;;;;;;;7.38;83.04;96010.06;4938528;28;20253;-70
2021/04/30 03:35:24;;;;;;;9.90;6.10;;;;;;;7.44;82.50;96014.06;4947719;28;20223;-70
2021/04/30 03:37:51;;;;;;;8.93;6.18;;;;;;;7.47;82.32;96006.09;4936873;28;20195;-70
2021/04/30 03:40:18;;;;;;;9.50;6.15;;;;;;;7.50;82.64;96009.31;4947857;28;20273;-70
2021/04/30 03:42:46;;;;;;;8.17;5.77;;;;;;;7.51;82.37;96005.00;4935236;28;20726;-70
2021/04/30 03:45:14;;;;;;;9.15;6.05;;;;;;;7.46;82.78;96013.03;4918641;28;20545;-70
2021/04/30 03:47:42;;;;;;;8.20;6.18;;;;;;;7.52;82.41;96004.06;4942350;28;20229;-70
2021/04/30 03:50:10;;;;;;;10.52;6.72;;;;;;;7.51;82.35;95999.81;4938179;28;20611;-72
2021/04/30 03:52:37;;;;;;;9.50;6.85;;;;;;;7.60;82.56;95999.25;4940865;28;20202;-70
2021/04/30 03:55:05;;;;;;;10.37;6.80;;;;;;;7.61;82.65;95996.59;4936384;28;20231;-70
2021/04/30 03:57:33;;;;;;;8.90;6.50;;;;;;;7.67;82.97;96010.91;4935776;28;20930;-69
2021/04/30 04:00:00;;;;;;;10.87;7.20;;;;;;;7.71;83.05;96009.78;4941556;28;20478;-69
2021/04/30 04:02:32;;;;;;;12.68;7.07;;;;;;;7.68;82.74;96008.25;4939750;28;20473;-71
2021/04/30 04:04:59;;;;;;;9.77;7.35;;;;;;;7.57;83.24;96005.44;4935887;28;20295;-70
2021/04/30 04:07:26;;;;;;;9.45;6.57;;;;;;;7.59;83.48;96008.78;4944215;28;20556;-70
2021/04/30 04:09:53;;;;;;;9.70;7.03;;;;;;;7.63;83.17;96005.09;4940049;28;20218;-71
2021/04/30 04:12:20;;;;;;;15.27;7.97;;;;;;;7.59;82.25;96007.97;4944331;28;20653;-70
2021/04/30 04:14:49;;;;;;;9.00;6.10;;;;;;;7.54;81.78;95997.88;4945893;28;20958;-71
2021/04/30 04:17:17;;;;;;;17.88;7.70;;;;;;;7.41;81.72;95986.59;4948366;28;20501;-71
2021/04/30 04:19:53;;;;;;;13.05;8.05;;;;;;;7.41;82.52;95998.69;4947407;28;20678;-69
2021/04/30 04:22:21;;;;;;;10.88;6.82;;;;;;;7.47;82.96;95998.31;4945299;28;20290;-70
2021/04/30 04:24:48;;;;;;;13.50;7.57;;;;;;;7.57;82.86;96002.03;4943811;28;20289;-70
2021/04/30 04:27:15;;;;;;;10.10;6.78;;;;;;;7.54;82.30;95994.44;4941120;28;20553;-71
2021/04/30 04:29:43;;;;;;;12.50;7.45;;;;;;;7.62;81.89;95997.41;4939360;28;20223;-70
2021/04/30 04:32:11;;;;;;;11.73;6.40;;;;;;;7.74;81.70;96007.03;4943778;28;20218;-73
2021/04/30 04:34:38;;;;;;;10.83;7.17;;;;;;;7.74;81.51;95996.69;4946173;28;20289;-70
2021/04/30 04:37:08;;;;;;;11.43;7.45;;;;;;;7.78;82.05;95998.13;4946451;28;20501;-70
2021/04/30 04:39:35;;;;;;;13.98;7.95;;;;;;;7.88;82.11;96004.44;4937231;28;20801;-70
2021/04/30 04:42:04;;;;;;;13.05;8.15;;;;;;;7.80;81.80;96004.09;4937285;28;20527;-70
2021/04/30 04:44:32;;;;;;;11.40;6.57;;;;;;;7.59;81.89;96003.59;4937967;28;20586;-71
2021/04/30 04:46:59;;;;;;;18.40;8.10;;;;;;;7.59;82.26;96026.09;4946727;28;20435;-70
2021/04/30 04:49:27;;;;;;;14.18;7.85;;;;;;;7.36;81.52;96011.09;4941030;28;20232;-71
2021/04/30 04:51:54;;;;;;;13.88;6.90;;;;;;;7.33;82.21;96021.59;4950159;28;20183;-71
2021/04/30 04:54:21;;;;;;;11.13;7.05;;;;;;;7.27;82.51;96017.63;4944374;28;20222;-70
2021/04/30 04:56:49;;;;;;;9.80;7.15;;;;;;;7.33;83.13;96024.19;4947249;28;20656;-70
2021/04/30 04:59:15;;;;;;;12.38;7.63;;;;;;;7.22;82.93;96024.81;4944178;28;20219;-70
2021/04/30 05:01:43;;;;;;;11.73;8.23;;;;;;;7.06;84.24;96025.81;4919542;28;20223;-70
2021/04/30 05:04:13;;;;;;;14.68;9.45;;;;;;;6.97;84.31;96019.38;4945104;28;20231;-70
2021/04/30 05:06:41;;;;;;;13.75;8.80;;;;;;;7.08;84.25;96016.19;4935152;28;20203;-70
2021/04/30 05:09:08;;;;;;;13.68;9.00;;;;;;;7.24;83.87;96014.38;4942391;28;20329;-71
2021/04/30 05:11:37;;;;;;;19.52;9.82;;;;;;;7.52;83.34;96019.59;4938744;28;20234;-71
2021/04/30 05:14:04;;;;;;;14.48;8.02;;;;;;;7.64;82.25;96026.66;4944290;28;20246;-71
2021/04/30 05:16:31;;;;;;;13.85;7.95;;;;;;;7.76;81.69;96024.16;4947081;28;20574;-71
2021/04/30 05:18:58;;;;;;;20.33;8.60;;;;;;;7.79;82.29;96028.31;4947088;28;20215;-70
2021/04/30 05:21:25;;;;;;;13.10;8.60;;;;;;;7.86;82.20;96034.81;4944504;28;20474;-71
2021/04/30 05:24:01;;;;;;;10.85;8.38;;;;;;;7.83;82.05;96027.19;4943094;28;20470;-71
2021/04/30 05:26:29;;;;;;;18.05;9.63;;;;;;;7.97;80.54;96029.78;4943508;28;20708;-71
2021/04/30 05:28:57;;;;;;;17.55;9.98;;;;;;;7.91;80.65;96023.22;4943177;28;20564;-72
2021/04/30 05:31:25;;;;;;;13.60;8.40;;;;;;;8.00;80.65;96016.63;4942412;28;20202;-71
2021/04/30 05:33:53;;;;;;;12.68;8.32;;;;;;;8.22;81.48;96019.59;4942408;28;20219;-71
2021/04/30 05:36:20;;;;;;;16.30;8.45;;;;;;;8.33;81.37;96012.84;4941220;28;20536;-73
2021/04/30 05:38:48;;;;;;;12.97;7.90;;;;;;;8.32;82.01;96013.75;4946722;28;20231;-71
2021/04/30 05:41:16;;;;;;;16.52;9.43;;;;;;;8.42;81.83;96007.09;4936951;28;20968;-71
2021/04/30 05:43:44;;;;;;;16.80;9.33;;;;;;;8.54;81.05;95996.75;4935750;28;20658;-73
2021/04/30 05:46:12;;;;;;;16.40;8.73;;;;;;;8.60;80.00;96006.75;4942782;28;20486;-74
2021/04/30 05:48:39;;;;;;;18.80;9.07;;;;;;;8.67;79.10;96008.03;4943438;28;20568;-76
2021/04/30 05:51:07;;;;;;;16.87;9.80;;;;;;;8.72;78.14;96008.53;4945489;28;20438;-74
2021/04/30 05:53:34;;;;;;;16.17;9.33;;;;;;;8.62;76.78;95998.84;4948737;28;20589;-73
2021/04/30 05:56:01;;;;;;;15.57;9.10;;;;;;;8.46;76.06;95999.00;4943789;28;20520;-74
2021/04/30 05:58:29;;;;;;;16.53;8.77;;;;;;;8.55;74.95;95990.63;4947350;28;20447;-74
2021/04/30 06:00:56;;;;;;;14.20;9.73;;;;;;;8.64;74.61;95997.00;4943219;28;20846;-73
2021/04/30 06:03:25;;;;;;;14.50;9.03;;;;;;;8.61;73.59;96011.00;4936589;28;20464;-74
2021/04/30 06:05:51;;;;;;;14.20;8.30;;;;;;;8.51;73.77;95993.53;4938366;28;20823;-75
2021/04/30 06:08:18;;;;;;;14.40;8.80;;;;;;;8.46;73.72;95973.06;4942512;28;20454;-73
2021/04/30 06:10:45;;;;;;;14.23;9.20;;;;;;;8.69;73.68;95985.41;4943658;28;20497;-72
2021/04/30 06:13:13;;;;;;;18.87;10.90;;;;;;;8.47;72.70;95943.63;4949031;28;20830;-73
2021/04/30 06:15:41;;;;;;;16.63;9.47;;;;;;;8.61;72.94;95977.28;4942626;28;20478;-74
2021/04/30 06:18:08;;;;;;;11.60;7.63;;;;;;;8.61;73.24;95990.25;4950430;28;20824;-74
2021/04/30 06:20:35;;;;;;;17.60;8.67;;;;;;;8.68;73.26;95993.28;4938302;28;20641;-72
2021/04/30 06:23:02;;;;;;;15.67;9.63;;;;;;;8.78;72.39;95999.56;4943366;28;20443;-73
2021/04/30 06:25:29;;;;;;;17.33;9.03;;;;;;;8.70;71.69;95994.84;4944064;28;20860;-74
2021/04/30 06:27:56;;;;;;;12.33;8.40;;;;;;;8.57;72.07;95985.38;4943121;28;20980;-74
2021/04/30 06:30:23;;;;;;;16.50;9.63;;;;;;;8.57;73.02;95981.00;4947820;28;20473;-74
2021/04/30 06:32:51;;;;;;;17.97;9.70;;;;;;;8.60;72.43;95991.19;4943796;28;21029;-74
2021/04/30 06:35:18;;;;;;;15.10;9.97;;;;;;;8.75;72.58;95994.53;4943606;28;20978;-73
2021/04/30 06:37:45;;;;;;;15.00;10.13;;;;;;;8.72;72.13;96005.13;4937304;28;20514;-74
2021/04/30 06:40:12;;;;;;;16.50;10.07;;;;;;;8.64;72.15;96013.38;4941798;28;20515;-74
2021/04/30 06:42:41;;;;;;;32.07;17.17;;;;;;;8.56;72.33;95994.88;4943971;28;20466;-74
2021/04/30 06:45:11;;;;;;;49.13;25.30;;;;;;;8.75;72.25;95997.97;4946912;28;20987;-73
2021/04/30 06:47:38;;;;;;;23.73;10.87;;;;;;;8.92;72.46;95995.13;4944808;28;20527;-72
2021/04/30 06:50:07;;;;;;;16.17;10.00;;;;;;;8.98;72.46;95992.13;4937689;28;20462;-75
2021/04/30 06:52:34;;;;;;;18.30;10.13;;;;;;;9.06;71.25;95989.84;4941532;28;20799;-72
2021/04/30 06:55:01;;;;;;;16.63;9.20;;;;;;;9.09;70.91;95981.03;4942801;28;20859;-74
2021/04/30 06:57:43;;;;;;;15.07;10.00;;;;;;;9.10;70.66;95980.94;4943333;28;20541;-75
2021/04/30 07:00:11;;;;;;;19.13;9.67;;;;;;;9.15;70.07;95965.88;4943054;28;21015;-74
2021/04/30 07:02:38;;;;;;;22.07;9.93;;;;;;;9.15;70.00;95973.66;4945115;28;20455;-73
2021/04/30 07:05:07;;;;;;;18.73;10.57;;;;;;;9.11;70.12;95990.41;4937428;28;21002;-73
2021/04/30 07:07:34;;;;;;;13.50;9.73;;;;;;;9.11;70.43;95981.75;4941039;28;20440;-74
2021/04/30 07:10:02;;;;;;;19.87;11.17;;;;;;;9.05;70.98;95989.94;4936640;28;20517;-73
2021/04/30 07:12:29;;;;;;;14.83;9.03;;;;;;;9.00;70.97;95982.47;4937747;28;20448;-72
2021/04/30 07:14:55;;;;;;;15.60;9.53;;;;;;;9.02;72.09;95987.56;4943907;28;20466;-73
2021/04/30 07:17:22;;;;;;;15.63;10.20;;;;;;;8.99;71.68;95988.59;4945265;28;20973;-72
2021/04/30 07:19:49;;;;;;;78.13;26.50;;;;;;;8.93;73.02;95983.81;4939223;28;20953;-73
2021/04/30 07:22:17;;;;;;;31.03;12.87;;;;;;;8.72;73.02;95992.97;4939977;28;20441;-74
2021/04/30 07:24:45;;;;;;;18.37;9.13;;;;;;;8.71;74.10;95985.31;4940304;28;21018;-75
2021/04/30 07:27:12;;;;;;;22.00;10.10;;;;;;;8.62;72.95;95978.94;4941388;28;20501;-74
2021/04/30 07:29:39;;;;;;;20.83;9.23;;;;;;;8.77;73.17;95977.94;4940188;28;20584;-74
2021/04/30 07:32:06;;;;;;;21.47;9.63;;;;;;;8.85;72.99;95983.47;4942828;28;20487;-73
2021/04/30 07:34:38;;;;;;;14.60;9.23;;;;;;;8.95;72.68;95981.97;4918830;28;20479;-74
2021/04/30 07:37:05;;;;;;;15.10;9.70;;;;;;;8.84;72.19;95973.19;4943060;28;20981;-74
2021/04/30 07:39:34;;;;;;;60.07;11.60;;;;;;;8.93;72.20;95983.00;4941471;28;21037;-74
2021/04/30 07:42:02;;;;;;;67.37;10.50;;;;;;;9.02;71.73;95972.84;4940935;28;20946;-74
2021/04/30 07:44:29;;;;;;;15.03;9.70;;;;;;;8.98;70.97;95966.19;4949550;28;20596;-73
2021/04/30 07:46:56;;;;;;;24.93;11.43;;;;;;;9.10;70.38;95988.75;4952745;28;20437;-74
2021/04/30 07:49:25;;;;;;;15.50;9.43;;;;;;;8.96;70.77;95983.63;4918598;28;20459;-74
2021/04/30 07:51:52;;;;;;;25.83;10.00;;;;;;;8.99;70.95;95983.41;4947945;28;20701;-74
2021/04/30 07:54:19;;;;;;;14.80;9.10;;;;;;;9.07;70.99;95978.53;4941555;28;20953;-75
2021/04/30 07:56:47;;;;;;;15.63;9.63;;;;;;;9.00;70.42;95977.28;4944819;28;20485;-74
2021/04/30 07:59:14;;;;;;;17.83;10.13;;;;;;;8.92;71.21;95979.53;4945186;28;20454;-75
2021/04/30 08:01:41;;;;;;;15.40;9.77;;;;;;;9.00;71.33;95989.44;4948893;28;20980;-73
2021/04/30 08:04:09;;;;;;;22.97;10.67;;;;;;;9.05;71.40;95998.59;4936714;28;20467;-73
2021/04/30 08:06:38;;;;;;;17.90;10.97;;;;;;;9.13;71.31;96006.69;4934096;28;20776;-74
2021/04/30 08:09:05;;;;;;;16.77;9.97;;;;;;;9.05;70.52;96008.13;4915691;29;20474;-74
2021/04/30 08:11:34;;;;;;;19.80;10.23;;;;;;;9.02;70.40;96029.94;4910316;29;20920;-73
2021/04/30 08:14:03;;;;;;;15.67;8.80;;;;;;;8.98;70.91;96018.09;4917770;28;20983;-74
2021/04/30 08:16:30;;;;;;;14.93;8.93;;;;;;;8.99;70.77;96008.56;4913828;29;20479;-75
2021/04/30 08:18:58;;;;;;;19.60;9.97;;;;;;;8.92;70.61;96015.88;4916847;28;20782;-74
2021/04/30 08:21:25;;;;;;;16.70;9.20;;;;;;;8.97;70.91;96016.41;4918029;29;20786;-75
2021/04/30 08:23:52;;;;;;;21.40;9.67;;;;;;;8.93;70.86;96014.94;4914942;28;20480;-74
2021/04/30 08:26:19;;;;;;;18.30;10.00;;;;;;;8.90;71.66;96009.97;4926559;29;20443;-73
2021/04/30 08:28:46;;;;;;;23.73;10.70;;;;;;;8.91;71.99;96006.44;4918439;28;21025;-73
2021/04/30 08:31:13;;;;;;;17.00;10.20;;;;;;;9.02;72.61;95997.94;4916280;29;20513;-74
2021/04/30 08:33:41;;;;;;;16.03;10.60;;;;;;;9.11;73.37;95986.97;4909918;29;20757;-74
2021/04/30 08:36:08;;;;;;;41.37;10.83;;;;;;;9.09;74.65;95989.66;4925073;28;20842;-73
2021/04/30 08:38:36;;;;;;;20.07;11.07;;;;;;;9.08;75.75;95998.38;4911615;28;20467;-75
2021/04/30 08:41:04;;;;;;;16.13;10.40;;;;;;;9.09;75.24;96002.63;4913780;29;20472;-74
2021/04/30 08:43:31;;;;;;;18.43;11.70;;;;;;;9.02;76.04;95997.94;4924479;28;20446;-73
2021/04/30 08:45:58;;;;;;;23.53;12.07;;;;;;;9.07;75.55;96007.09;4923174;28;20760;-73
2021/04/30 08:48:33;;;;;;;20.03;11.70;;;;;;;9.06;76.16;96004.63;4920259;28;20475;-73
2021/04/30 08:51:00;;;;;;;23.47;11.80;;;;;;;9.07;75.96;96001.09;4914959;28;20764;-74
2021/04/30 08:53:28;;;;;;;18.87;11.00;;;;;;;9.00;76.60;96002.41;4918880;28;20464;-73
2021/04/30 08:55:58;;;;;;;18.77;11.50;;;;;;;8.96;75.91;95993.16;4921486;28;20993;-74
2021/04/30 08:58:26;;;;;;;21.30;10.90;;;;;;;9.12;75.46;96010.22;4915760;28;20483;-74
2021/04/30 09:00:54;;;;;;;29.57;12.17;;;;;;;9.08;75.44;96003.56;4917078;28;20928;-74
2021/04/30 09:03:22;;;;;;;18.90;10.60;;;;;;;9.05;76.09;96015.91;4943220;28;20482;-72
2021/04/30 09:05:55;;;;;;;19.67;11.90;;;;;;;8.96;76.09;96016.50;4946894;28;20550;-75
2021/04/30 09:08:23;;;;;;;18.40;10.90;;;;;;;8.98;76.20;96012.88;4939106;28;20801;-73
2021/04/30 09:11:07;;;;;;;22.37;12.33;;;;;;;8.91;76.77;96001.25;4949490;28;20453;-73
2021/04/30 09:13:34;;;;;;;19.80;11.23;;;;;;;8.94;76.47;96014.00;4943574;28;20792;-75
2021/04/30 09:16:06;;;;;;;17.37;9.90;;;;;;;8.93;76.05;96033.09;4947214;28;20445;-73
2021/04/30 09:18:33;;;;;;;20.80;10.97;;;;;;;8.83;75.60;96033.81;4929290;28;20460;-74
2021/04/30 09:21:10;;;;;;;23.60;10.50;;;;;;;8.83;75.23;96019.06;4938193;28;20812;-74
2021/04/30 09:23:40;;;;;;;22.67;11.33;;;;;;;8.76;76.05;96009.19;4940749;28;20476;-75
2021/04/30 09:26:25;;;;;;;18.20;10.70;;;;;;;8.87;76.05;95991.97;4949358;28;20749;-75
2021/04/30 09:29:02;;;;;;;15.53;10.00;;;;;;;9.11;75.56;96002.53;4929908;28;20474;-74
2021/04/30 09:31:49;;;;;;;17.13;11.00;;;;;;;9.21;75.57;95999.22;4938162;28;20877;-75
2021/04/30 09:34:25;;;;;;;21.50;11.90;;;;;;;9.21;75.52;95999.22;4944605;28;20571;-74
2021/04/30 09:37:11;;;;;;;16.17;10.20;;;;;;;9.02;76.94;95998.78;4944672;28;21100;-73
2021/04/30 09:39:54;;;;;;;19.60;11.67;;;;;;;8.87;78.23;96007.56;4944882;28;20948;-74
2021/04/30 09:42:23;;;;;;;25.70;11.37;;;;;;;8.82;78.41;96012.22;4949213;28;20957;-73
2021/04/30 09:44:54;;;;;;;20.63;11.67;;;;;;;8.76;79.38;95996.19;4938805;28;20466;-73
2021/04/30 09:47:24;;;;;;;21.60;12.27;;;;;;;8.88;78.74;95991.06;4936650;28;20517;-74
2021/04/30 09:49:52;;;;;;;17.90;10.43;;;;;;;8.83;78.79;96007.84;4943100;28;20470;-74
2021/04/30 09:52:22;;;;;;;21.43;11.20;;;;;;;8.57;78.87;96006.09;4938525;28;20820;-73
2021/04/30 09:54:50;;;;;;;19.50;11.53;;;;;;;8.42;79.50;96013.09;4944145;28;20465;-74
2021/04/30 09:57:19;;;;;;;20.80;14.50;;;;;;;8.34;79.63;96001.53;4943471;28;20902;-73
2021/04/30 09:59:54;;;;;;;22.00;12.07;;;;;;;8.48;80.36;96007.50;4938424;28;20790;-75
2021/04/30 10:02:22;;;;;;;21.50;12.40;;;;;;;8.63;80.21;96009.13;4942554;28;21217;-73
2021/04/30 10:04:52;;;;;;;26.80;12.40;;;;;;;8.74;80.05;96004.09;4937619;28;21011;-73
2021/04/30 10:07:29;;;;;;;18.93;12.43;;;;;;;8.76;79.37;96007.44;4938320;28;20446;-74
2021/04/30 10:10:06;;;;;;;18.27;11.83;;;;;;;8.60;79.67;96014.53;4942433;28;20531;-74
2021/04/30 10:12:34;;;;;;;27.03;13.67;;;;;;;8.58;80.22;96007.78;4949442;28;20435;-72
2021/04/30 10:15:01;;;;;;;19.10;12.43;;;;;;;8.55;80.46;96008.78;4946653;28;20496;-75
2021/04/30 10:17:30;;;;;;;18.93;12.23;;;;;;;8.63;80.43;96014.31;4942262;28;20854;-73
2021/04/30 10:19:57;;;;;;;18.60;11.50;;;;;;;8.67;80.89;96018.41;4941524;28;20599;-73
2021/04/30 10:22:26;;;;;;;20.70;12.70;;;;;;;8.65;81.07;96007.25;4940189;28;20446;-74
2021/04/30 10:25:17;;;;;;;21.30;11.97;;;;;;;8.59;80.89;96007.69;4945789;28;20558;-73
2021/04/30 10:27:46;;;;;;;24.90;12.80;;;;;;;8.54;82.38;96024.44;4925354;28;20768;-73
2021/04/30 10:30:27;;;;;;;24.90;13.10;;;;;;;8.48;82.99;96023.06;4946018;28;20878;-74
2021/04/30 10:33:02;;;;;;;21.53;12.90;;;;;;;8.45;83.61;96031.06;4943331;28;20964;-74
2021/04/30 10:35:34;;;;;;;19.93;13.13;;;;;;;8.58;84.66;96034.56;4937181;28;20458;-75
2021/04/30 10:38:06;;;;;;;20.97;11.97;;;;;;;8.52;84.06;96024.56;4950805;28;20552;-73
2021/04/30 10:40:35;;;;;;;20.30;13.40;;;;;;;8.53;84.26;96041.78;4946898;28;20482;-74
2021/04/30 10:43:19;;;;;;;26.23;14.60;;;;;;;8.42;85.42;96044.19;4946588;28;20922;-74
2021/04/30 10:46:05;;;;;;;26.83;14.30;;;;;;;8.46;86.46;96048.28;4935805;28;20454;-73
2021/04/30 10:48:32;;;;;;;21.57;13.53;;;;;;;8.41;86.27;96042.53;4941966;28;20952;-73
2021/04/30 10:51:12;;;;;;;36.50;21.07;;;;;;;8.47;86.78;96047.34;4944907;28;20773;-73
2021/04/30 10:53:39;;;;;;;24.67;15.93;;;;;;;8.34;86.27;96046.44;4940765;28;20465;-74
2021/04/30 10:56:33;;;;;;;29.20;14.82;;;;;;;8.03;86.92;96056.16;4937457;28;20194;-74
2021/04/30 10:59:02;;;;;;;21.60;13.40;;;;;;;7.87;87.26;96052.00;4937873;28;20306;-74
2021/04/30 11:01:32;;;;;;;23.60;14.27;;;;;;;7.84;87.92;96062.53;4946065;28;20489;-73
2021/04/30 11:04:14;;;;;;;25.25;14.13;;;;;;;7.78;89.29;96055.97;4941779;28;20219;-74
2021/04/30 11:06:45;;;;;;;24.52;12.93;;;;;;;7.79;88.04;96056.81;4935536;28;20647;-74
2021/04/30 11:09:14;;;;;;;20.23;12.87;;;;;;;7.86;88.52;96058.13;4923130;28;20728;-74
2021/04/30 11:11:45;;;;;;;17.75;12.02;;;;;;;7.84;87.65;96059.94;4938157;28;20574;-74
2021/04/30 11:14:27;;;;;;;19.73;12.07;;;;;;;7.88;87.86;96056.25;4947183;28;20222;-74
2021/04/30 11:16:54;;;;;;;23.53;12.30;;;;;;;7.85;87.58;96051.25;4946041;28;20807;-73
2021/04/30 11:19:22;;;;;;;21.17;11.70;;;;;;;8.01;88.97;96052.81;4950931;28;21265;-73
2021/04/30 11:21:51;;;;;;;17.23;11.77;;;;;;;8.12;88.18;96054.78;4948072;28;20853;-74
2021/04/30 11:24:37;;;;;;;19.27;10.40;;;;;;;8.00;87.12;96045.13;4934737;28;20223;-73
2021/04/30 11:27:37;;;;;;;19.40;10.50;;;;;;;7.95;86.90;96057.56;4942688;28;20434;-73
2021/04/30 11:30:22;;;;;;;15.52;9.88;;;;;;;8.00;87.71;96060.69;4944243;28;20286;-73
2021/04/30 11:32:57;;;;;;;15.87;9.83;;;;;;;8.05;86.98;96058.66;4948993;28;20191;-73
2021/04/30 11:35:26;;;;;;;18.05;10.07;;;;;;;8.01;87.42;96052.00;4945422;28;20774;-75
2021/04/30 11:37:53;;;;;;;19.83;10.60;;;;;;;7.81;87.25;96042.00;4955189;28;20629;-74
2021/04/30 11:40:23;;;;;;;15.33;9.40;;;;;;;7.79;87.67;96056.81;4940858;28;20864;-74
2021/04/30 11:43:06;;;;;;;17.27;9.68;;;;;;;7.62;89.04;96060.41;4948132;28;20454;-75